sensor_id;sensor_type;location;lat;lon;timestamp;temperature;humidity
74171;DHT22;62526;50.948;6.590;2023-07-16T00:00:44;22.80;99.90
74171;DHT22;62526;50.948;6.590;2023-07-16T00:03:10;22.70;99.90
74171;DHT22;62526;50.948;6.590;2023-07-16T00:05:38;22.70;99.90
74171;DHT22;62526;50.948;6.590;2023-07-16T00:08:05;22.60;99.90
74171;DHT22;62526;50.948;6.590;2023-07-16T00:10:38;22.60;99.90
74171;DHT22;62526;50.948;6.590;2023-07-16T00:13:05;22.40;99.90
74171;DHT22;62526;50.948;6.590;2023-07-16T00:15:32;22.40;99.90
74171;DHT22;62526;50.948;6.590;2023-07-16T00:17:59;22.40;99.90
74171;DHT22;62526;50.948;6.590;2023-07-16T00:20:26;22.40;99.90
74171;DHT22;62526;50.948;6.590;2023-07-16T00:22:53;22.30;99.90
74171;DHT22;62526;50.948;6.590;2023-07-16T00:25:21;22.30;99.90
74171;DHT22;62526;50.948;6.590;2023-07-16T00:27:48;22.30;99.90
74171;DHT22;62526;50.948;6.590;2023-07-16T00:30:15;22.20;99.90
74171;DHT22;62526;50.948;6.590;2023-07-16T00:32:49;22.30;99.90
74171;DHT22;62526;50.948;6.590;2023-07-16T00:35:16;22.30;99.90
74171;DHT22;62526;50.948;6.590;2023-07-16T00:37:44;22.30;99.90
74171;DHT22;62526;50.948;6.590;2023-07-16T00:40:15;22.30;99.90
74171;DHT22;62526;50.948;6.590;2023-07-16T00:42:54;22.30;99.90
74171;DHT22;62526;50.948;6.590;2023-07-16T00:45:21;22.40;99.90
74171;DHT22;62526;50.948;6.590;2023-07-16T00:47:48;22.20;99.90
74171;DHT22;62526;50.948;6.590;2023-07-16T00:50:15;22.40;99.90
74171;DHT22;62526;50.948;6.590;2023-07-16T00:52:42;22.40;99.90
74171;DHT22;62526;50.948;6.590;2023-07-16T00:55:11;22.30;99.90
74171;DHT22;62526;50.948;6.590;2023-07-16T00:57:38;22.20;99.90
74171;DHT22;62526;50.948;6.590;2023-07-16T01:00:05;22.20;99.90
74171;DHT22;62526;50.948;6.590;2023-07-16T01:02:33;22.10;99.90
74171;DHT22;62526;50.948;6.590;2023-07-16T01:05:00;22.20;99.90
74171;DHT22;62526;50.948;6.590;2023-07-16T01:07:28;22.20;99.90
74171;DHT22;62526;50.948;6.590;2023-07-16T01:09:55;22.20;99.90
74171;DHT22;62526;50.948;6.590;2023-07-16T01:12:22;22.10;99.90
74171;DHT22;62526;50.948;6.590;2023-07-16T01:14:49;22.00;99.90
74171;DHT22;62526;50.948;6.590;2023-07-16T01:17:15;22.00;99.90
74171;DHT22;62526;50.948;6.590;2023-07-16T01:19:42;22.00;99.90
74171;DHT22;62526;50.948;6.590;2023-07-16T01:22:35;21.90;99.90
74171;DHT22;62526;50.948;6.590;2023-07-16T01:26:17;21.90;99.90
74171;DHT22;62526;50.948;6.590;2023-07-16T01:28:16;21.90;99.90
74171;DHT22;62526;50.948;6.590;2023-07-16T01:30:44;21.90;99.90
74171;DHT22;62526;50.948;6.590;2023-07-16T01:33:09;21.70;99.90
74171;DHT22;62526;50.948;6.590;2023-07-16T01:35:37;21.60;99.90
74171;DHT22;62526;50.948;6.590;2023-07-16T01:38:04;21.70;99.90
74171;DHT22;62526;50.948;6.590;2023-07-16T01:40:31;21.70;99.90
74171;DHT22;62526;50.948;6.590;2023-07-16T01:42:58;21.70;99.90
74171;DHT22;62526;50.948;6.590;2023-07-16T01:45:25;21.70;99.90
74171;DHT22;62526;50.948;6.590;2023-07-16T01:48:14;21.70;99.90
74171;DHT22;62526;50.948;6.590;2023-07-16T01:50:37;21.80;99.90
74171;DHT22;62526;50.948;6.590;2023-07-16T01:53:04;21.60;99.90
74171;DHT22;62526;50.948;6.590;2023-07-16T01:55:31;21.70;99.90
74171;DHT22;62526;50.948;6.590;2023-07-16T01:57:58;21.60;99.90
74171;DHT22;62526;50.948;6.590;2023-07-16T02:00:25;21.60;99.90
74171;DHT22;62526;50.948;6.590;2023-07-16T02:02:53;21.60;99.90
74171;DHT22;62526;50.948;6.590;2023-07-16T02:05:20;21.50;99.90
74171;DHT22;62526;50.948;6.590;2023-07-16T02:07:47;21.50;99.90
74171;DHT22;62526;50.948;6.590;2023-07-16T02:10:14;21.50;99.90
74171;DHT22;62526;50.948;6.590;2023-07-16T02:12:41;21.60;99.90
74171;DHT22;62526;50.948;6.590;2023-07-16T02:15:08;21.60;99.90
74171;DHT22;62526;50.948;6.590;2023-07-16T02:17:35;21.60;99.90
74171;DHT22;62526;50.948;6.590;2023-07-16T02:20:03;21.60;99.90
74171;DHT22;62526;50.948;6.590;2023-07-16T02:22:34;21.60;99.90
74171;DHT22;62526;50.948;6.590;2023-07-16T02:24:59;21.70;99.90
74171;DHT22;62526;50.948;6.590;2023-07-16T02:27:26;21.70;99.90
74171;DHT22;62526;50.948;6.590;2023-07-16T02:29:53;21.60;99.90
74171;DHT22;62526;50.948;6.590;2023-07-16T02:32:19;21.60;99.90
74171;DHT22;62526;50.948;6.590;2023-07-16T02:34:46;21.50;99.90
74171;DHT22;62526;50.948;6.590;2023-07-16T02:37:13;21.50;99.90
74171;DHT22;62526;50.948;6.590;2023-07-16T02:39:40;21.50;99.90
74171;DHT22;62526;50.948;6.590;2023-07-16T02:42:06;21.60;99.90
74171;DHT22;62526;50.948;6.590;2023-07-16T02:44:33;21.40;99.90
74171;DHT22;62526;50.948;6.590;2023-07-16T02:47:00;19.50;99.90
74171;DHT22;62526;50.948;6.590;2023-07-16T02:49:26;21.30;99.90
74171;DHT22;62526;50.948;6.590;2023-07-16T02:51:53;21.20;99.90
74171;DHT22;62526;50.948;6.590;2023-07-16T02:54:21;21.20;99.90
74171;DHT22;62526;50.948;6.590;2023-07-16T02:56:47;21.30;99.90
74171;DHT22;62526;50.948;6.590;2023-07-16T02:59:14;21.20;99.90
74171;DHT22;62526;50.948;6.590;2023-07-16T03:01:42;21.30;99.90
74171;DHT22;62526;50.948;6.590;2023-07-16T03:04:09;21.20;99.90
74171;DHT22;62526;50.948;6.590;2023-07-16T03:06:36;21.10;99.90
74171;DHT22;62526;50.948;6.590;2023-07-16T03:09:02;21.10;99.90
74171;DHT22;62526;50.948;6.590;2023-07-16T03:11:29;21.00;99.90
74171;DHT22;62526;50.948;6.590;2023-07-16T03:13:56;21.10;99.90
74171;DHT22;62526;50.948;6.590;2023-07-16T03:16:23;21.00;99.90
74171;DHT22;62526;50.948;6.590;2023-07-16T03:18:50;20.90;99.90
74171;DHT22;62526;50.948;6.590;2023-07-16T03:21:17;21.00;99.90
74171;DHT22;62526;50.948;6.590;2023-07-16T03:23:44;20.90;99.90
74171;DHT22;62526;50.948;6.590;2023-07-16T03:26:11;20.90;99.90
74171;DHT22;62526;50.948;6.590;2023-07-16T03:28:37;21.00;99.90
74171;DHT22;62526;50.948;6.590;2023-07-16T03:31:04;21.10;99.90
74171;DHT22;62526;50.948;6.590;2023-07-16T03:33:32;21.10;99.90
74171;DHT22;62526;50.948;6.590;2023-07-16T03:35:59;21.00;99.90
74171;DHT22;62526;50.948;6.590;2023-07-16T03:38:25;21.10;99.90
74171;DHT22;62526;50.948;6.590;2023-07-16T03:40:53;21.10;99.90
74171;DHT22;62526;50.948;6.590;2023-07-16T03:43:19;21.10;99.90
74171;DHT22;62526;50.948;6.590;2023-07-16T03:45:46;21.10;99.90
74171;DHT22;62526;50.948;6.590;2023-07-16T03:48:13;21.10;99.90
74171;DHT22;62526;50.948;6.590;2023-07-16T03:50:40;21.10;99.90
74171;DHT22;62526;50.948;6.590;2023-07-16T03:53:06;21.10;99.90
74171;DHT22;62526;50.948;6.590;2023-07-16T03:55:33;21.10;99.90
74171;DHT22;62526;50.948;6.590;2023-07-16T03:58:00;21.10;99.90
74171;DHT22;62526;50.948;6.590;2023-07-16T04:00:27;21.10;99.90
74171;DHT22;62526;50.948;6.590;2023-07-16T04:02:54;21.10;99.90
74171;DHT22;62526;50.948;6.590;2023-07-16T04:05:21;21.00;99.90
74171;DHT22;62526;50.948;6.590;2023-07-16T04:07:49;21.00;99.90
74171;DHT22;62526;50.948;6.590;2023-07-16T04:10:15;21.00;99.90
74171;DHT22;62526;50.948;6.590;2023-07-16T04:12:42;21.10;99.90
74171;DHT22;62526;50.948;6.590;2023-07-16T04:15:09;21.10;99.90
74171;DHT22;62526;50.948;6.590;2023-07-16T04:17:36;21.20;99.90
74171;DHT22;62526;50.948;6.590;2023-07-16T04:20:04;21.20;99.90
74171;DHT22;62526;50.948;6.590;2023-07-16T04:22:31;21.20;99.90
74171;DHT22;62526;50.948;6.590;2023-07-16T04:24:58;21.20;99.90
74171;DHT22;62526;50.948;6.590;2023-07-16T04:27:25;21.20;99.90
74171;DHT22;62526;50.948;6.590;2023-07-16T04:29:52;21.20;99.80
74171;DHT22;62526;50.948;6.590;2023-07-16T04:32:19;21.10;99.70
74171;DHT22;62526;50.948;6.590;2023-07-16T04:34:46;21.20;99.60
74171;DHT22;62526;50.948;6.590;2023-07-16T04:37:15;21.30;99.80
74171;DHT22;62526;50.948;6.590;2023-07-16T04:39:41;21.30;99.30
74171;DHT22;62526;50.948;6.590;2023-07-16T04:42:08;21.30;99.20
74171;DHT22;62526;50.948;6.590;2023-07-16T04:44:35;21.30;99.30
74171;DHT22;62526;50.948;6.590;2023-07-16T04:47:02;21.40;99.10
74171;DHT22;62526;50.948;6.590;2023-07-16T04:49:29;21.30;99.20
74171;DHT22;62526;50.948;6.590;2023-07-16T04:51:55;21.40;99.20
74171;DHT22;62526;50.948;6.590;2023-07-16T04:54:22;21.50;98.70
74171;DHT22;62526;50.948;6.590;2023-07-16T04:56:49;21.50;98.40
74171;DHT22;62526;50.948;6.590;2023-07-16T04:59:16;21.60;98.00
74171;DHT22;62526;50.948;6.590;2023-07-16T05:01:44;21.50;98.10
74171;DHT22;62526;50.948;6.590;2023-07-16T05:04:11;21.50;98.30
74171;DHT22;62526;50.948;6.590;2023-07-16T05:06:37;21.20;97.80
74171;DHT22;62526;50.948;6.590;2023-07-16T05:09:04;21.20;98.10
74171;DHT22;62526;50.948;6.590;2023-07-16T05:11:31;21.20;98.30
74171;DHT22;62526;50.948;6.590;2023-07-16T05:13:57;21.40;98.20
74171;DHT22;62526;50.948;6.590;2023-07-16T05:16:24;21.30;97.70
74171;DHT22;62526;50.948;6.590;2023-07-16T05:18:51;21.30;97.70
74171;DHT22;62526;50.948;6.590;2023-07-16T05:21:18;21.40;97.80
74171;DHT22;62526;50.948;6.590;2023-07-16T05:23:45;21.20;97.10
74171;DHT22;62526;50.948;6.590;2023-07-16T05:26:12;21.20;97.80
74171;DHT22;62526;50.948;6.590;2023-07-16T05:28:38;21.20;97.20
74171;DHT22;62526;50.948;6.590;2023-07-16T05:31:06;21.20;97.30
74171;DHT22;62526;50.948;6.590;2023-07-16T05:33:33;21.20;97.10
74171;DHT22;62526;50.948;6.590;2023-07-16T05:35:59;21.10;96.50
74171;DHT22;62526;50.948;6.590;2023-07-16T05:38:26;20.90;97.20
74171;DHT22;62526;50.948;6.590;2023-07-16T05:40:52;21.10;96.90
74171;DHT22;62526;50.948;6.590;2023-07-16T05:43:19;21.00;96.50
74171;DHT22;62526;50.948;6.590;2023-07-16T05:45:48;21.00;96.80
74171;DHT22;62526;50.948;6.590;2023-07-16T05:48:14;21.20;96.60
74171;DHT22;62526;50.948;6.590;2023-07-16T05:50:43;21.20;96.00
74171;DHT22;62526;50.948;6.590;2023-07-16T05:53:07;22.00;96.40
74171;DHT22;62526;50.948;6.590;2023-07-16T05:55:35;21.00;96.00
74171;DHT22;62526;50.948;6.590;2023-07-16T05:58:02;21.10;95.80
74171;DHT22;62526;50.948;6.590;2023-07-16T06:00:28;21.00;96.40
74171;DHT22;62526;50.948;6.590;2023-07-16T06:02:55;21.10;96.00
74171;DHT22;62526;50.948;6.590;2023-07-16T06:05:23;20.70;95.90
74171;DHT22;62526;50.948;6.590;2023-07-16T06:07:50;20.70;96.20
74171;DHT22;62526;50.948;6.590;2023-07-16T06:10:17;20.70;96.30
74171;DHT22;62526;50.948;6.590;2023-07-16T06:12:44;20.60;95.60
74171;DHT22;62526;50.948;6.590;2023-07-16T06:15:11;20.80;95.80
74171;DHT22;62526;50.948;6.590;2023-07-16T06:17:38;20.90;95.30
74171;DHT22;62526;50.948;6.590;2023-07-16T06:20:07;20.70;95.20
74171;DHT22;62526;50.948;6.590;2023-07-16T06:22:35;20.70;95.50
74171;DHT22;62526;50.948;6.590;2023-07-16T06:25:02;20.90;95.80
74171;DHT22;62526;50.948;6.590;2023-07-16T06:27:29;20.90;96.10
74171;DHT22;62526;50.948;6.590;2023-07-16T06:29:56;21.10;94.90
74171;DHT22;62526;50.948;6.590;2023-07-16T06:32:23;21.00;95.20
74171;DHT22;62526;50.948;6.590;2023-07-16T06:34:50;21.10;95.20
74171;DHT22;62526;50.948;6.590;2023-07-16T06:37:17;21.10;95.30
74171;DHT22;62526;50.948;6.590;2023-07-16T06:39:43;21.40;94.20
74171;DHT22;62526;50.948;6.590;2023-07-16T06:42:11;21.60;94.10
74171;DHT22;62526;50.948;6.590;2023-07-16T06:44:37;21.80;93.60
74171;DHT22;62526;50.948;6.590;2023-07-16T06:47:05;21.40;93.60
74171;DHT22;62526;50.948;6.590;2023-07-16T06:49:32;21.30;93.60
74171;DHT22;62526;50.948;6.590;2023-07-16T06:52:00;21.40;94.20
74171;DHT22;62526;50.948;6.590;2023-07-16T06:54:26;21.60;94.40
74171;DHT22;62526;50.948;6.590;2023-07-16T06:56:56;21.30;93.30
74171;DHT22;62526;50.948;6.590;2023-07-16T06:59:23;21.20;93.50
74171;DHT22;62526;50.948;6.590;2023-07-16T07:01:49;21.20;93.60
74171;DHT22;62526;50.948;6.590;2023-07-16T07:04:16;21.50;93.80
74171;DHT22;62526;50.948;6.590;2023-07-16T07:06:43;21.70;93.40
74171;DHT22;62526;50.948;6.590;2023-07-16T07:09:10;21.80;93.20
74171;DHT22;62526;50.948;6.590;2023-07-16T07:11:37;22.00;92.80
74171;DHT22;62526;50.948;6.590;2023-07-16T07:14:03;22.00;92.40
74171;DHT22;62526;50.948;6.590;2023-07-16T07:16:30;22.10;92.30
74171;DHT22;62526;50.948;6.590;2023-07-16T07:18:58;22.10;92.40
74171;DHT22;62526;50.948;6.590;2023-07-16T07:21:25;22.30;92.40
74171;DHT22;62526;50.948;6.590;2023-07-16T07:23:51;22.10;92.00
74171;DHT22;62526;50.948;6.590;2023-07-16T07:26:18;22.20;91.40
74171;DHT22;62526;50.948;6.590;2023-07-16T07:28:45;22.20;91.20
74171;DHT22;62526;50.948;6.590;2023-07-16T07:31:13;22.40;91.90
74171;DHT22;62526;50.948;6.590;2023-07-16T07:33:40;22.60;91.80
74171;DHT22;62526;50.948;6.590;2023-07-16T07:36:07;22.30;90.70
74171;DHT22;62526;50.948;6.590;2023-07-16T07:38:35;22.20;91.10
74171;DHT22;62526;50.948;6.590;2023-07-16T07:41:04;22.20;90.60
74171;DHT22;62526;50.948;6.590;2023-07-16T07:43:29;22.10;91.00
74171;DHT22;62526;50.948;6.590;2023-07-16T07:45:57;21.90;90.70
74171;DHT22;62526;50.948;6.590;2023-07-16T07:48:24;22.00;90.20
74171;DHT22;62526;50.948;6.590;2023-07-16T07:50:52;21.70;90.00
74171;DHT22;62526;50.948;6.590;2023-07-16T07:53:18;21.70;90.50
74171;DHT22;62526;50.948;6.590;2023-07-16T07:55:45;22.00;90.50
74171;DHT22;62526;50.948;6.590;2023-07-16T07:58:13;22.00;90.50
74171;DHT22;62526;50.948;6.590;2023-07-16T08:00:40;22.30;90.20
74171;DHT22;62526;50.948;6.590;2023-07-16T08:03:06;22.00;90.00
74171;DHT22;62526;50.948;6.590;2023-07-16T08:05:34;22.00;88.40
74171;DHT22;62526;50.948;6.590;2023-07-16T08:08:01;22.30;89.20
74171;DHT22;62526;50.948;6.590;2023-07-16T08:10:28;22.60;89.50
74171;DHT22;62526;50.948;6.590;2023-07-16T08:12:56;22.60;87.80
74171;DHT22;62526;50.948;6.590;2023-07-16T08:15:23;22.40;87.80
74171;DHT22;62526;50.948;6.590;2023-07-16T08:17:50;22.40;88.80
74171;DHT22;62526;50.948;6.590;2023-07-16T08:20:17;22.40;88.60
74171;DHT22;62526;50.948;6.590;2023-07-16T08:22:43;22.90;86.60
74171;DHT22;62526;50.948;6.590;2023-07-16T08:25:10;22.90;86.50
74171;DHT22;62526;50.948;6.590;2023-07-16T08:27:37;22.90;85.30
74171;DHT22;62526;50.948;6.590;2023-07-16T08:30:05;22.90;85.50
74171;DHT22;62526;50.948;6.590;2023-07-16T08:32:38;23.10;84.40
74171;DHT22;62526;50.948;6.590;2023-07-16T08:35:05;23.60;84.60
74171;DHT22;62526;50.948;6.590;2023-07-16T08:37:33;23.40;83.30
74171;DHT22;62526;50.948;6.590;2023-07-16T08:40:00;23.40;83.90
74171;DHT22;62526;50.948;6.590;2023-07-16T08:42:27;23.40;83.00
74171;DHT22;62526;50.948;6.590;2023-07-16T08:44:54;23.50;82.00
74171;DHT22;62526;50.948;6.590;2023-07-16T08:47:20;23.40;83.70
74171;DHT22;62526;50.948;6.590;2023-07-16T08:49:54;23.50;82.50
74171;DHT22;62526;50.948;6.590;2023-07-16T08:52:20;23.50;82.90
74171;DHT22;62526;50.948;6.590;2023-07-16T08:54:47;23.40;83.70
74171;DHT22;62526;50.948;6.590;2023-07-16T08:57:14;23.60;82.70
74171;DHT22;62526;50.948;6.590;2023-07-16T08:59:42;23.60;83.50
74171;DHT22;62526;50.948;6.590;2023-07-16T09:02:08;23.40;82.70
74171;DHT22;62526;50.948;6.590;2023-07-16T09:04:36;23.40;82.10
74171;DHT22;62526;50.948;6.590;2023-07-16T09:07:02;23.40;82.90
74171;DHT22;62526;50.948;6.590;2023-07-16T09:09:29;23.60;83.40
74171;DHT22;62526;50.948;6.590;2023-07-16T09:11:56;23.70;82.10
74171;DHT22;62526;50.948;6.590;2023-07-16T09:14:23;23.90;82.50
74171;DHT22;62526;50.948;6.590;2023-07-16T09:16:50;24.50;79.30
74171;DHT22;62526;50.948;6.590;2023-07-16T09:19:17;24.80;80.00
74171;DHT22;62526;50.948;6.590;2023-07-16T09:21:47;24.90;79.60
74171;DHT22;62526;50.948;6.590;2023-07-16T09:24:13;25.00;79.30
74171;DHT22;62526;50.948;6.590;2023-07-16T09:29:13;24.50;78.50
74171;DHT22;62526;50.948;6.590;2023-07-16T09:31:51;24.40;79.30
74171;DHT22;62526;50.948;6.590;2023-07-16T09:34:06;24.30;78.20
74171;DHT22;62526;50.948;6.590;2023-07-16T09:36:33;24.60;78.00
74171;DHT22;62526;50.948;6.590;2023-07-16T09:38:59;24.80;78.20
74171;DHT22;62526;50.948;6.590;2023-07-16T09:41:26;24.90;76.90
74171;DHT22;62526;50.948;6.590;2023-07-16T09:43:53;24.90;77.50
74171;DHT22;62526;50.948;6.590;2023-07-16T09:46:20;25.40;76.30
74171;DHT22;62526;50.948;6.590;2023-07-16T09:48:46;25.40;76.50
74171;DHT22;62526;50.948;6.590;2023-07-16T09:51:13;25.20;73.70
74171;DHT22;62526;50.948;6.590;2023-07-16T09:53:41;24.70;73.80
74171;DHT22;62526;50.948;6.590;2023-07-16T09:56:08;24.70;73.60
74171;DHT22;62526;50.948;6.590;2023-07-16T09:58:34;24.70;73.80
74171;DHT22;62526;50.948;6.590;2023-07-16T10:01:01;25.10;75.20
74171;DHT22;62526;50.948;6.590;2023-07-16T10:03:28;25.20;76.00
74171;DHT22;62526;50.948;6.590;2023-07-16T10:05:54;25.90;71.90
74171;DHT22;62526;50.948;6.590;2023-07-16T10:08:21;25.80;72.00
74171;DHT22;62526;50.948;6.590;2023-07-16T10:10:48;25.70;70.90
74171;DHT22;62526;50.948;6.590;2023-07-16T10:13:15;25.70;71.10
74171;DHT22;62526;50.948;6.590;2023-07-16T10:15:50;25.80;70.10
74171;DHT22;62526;50.948;6.590;2023-07-16T10:18:26;25.70;69.80
74171;DHT22;62526;50.948;6.590;2023-07-16T10:20:52;25.80;68.90
74171;DHT22;62526;50.948;6.590;2023-07-16T10:23:20;25.80;69.40
74171;DHT22;62526;50.948;6.590;2023-07-16T10:25:58;25.80;70.00
74171;DHT22;62526;50.948;6.590;2023-07-16T10:28:25;25.30;68.50
74171;DHT22;62526;50.948;6.590;2023-07-16T10:30:52;25.30;69.10
74171;DHT22;62526;50.948;6.590;2023-07-16T10:33:19;25.30;69.70
74171;DHT22;62526;50.948;6.590;2023-07-16T10:35:45;25.50;69.30
74171;DHT22;62526;50.948;6.590;2023-07-16T10:38:13;25.90;67.80
74171;DHT22;62526;50.948;6.590;2023-07-16T10:40:41;25.80;66.40
74171;DHT22;62526;50.948;6.590;2023-07-16T10:43:07;25.50;68.20
74171;DHT22;62526;50.948;6.590;2023-07-16T10:45:34;25.50;66.90
74171;DHT22;62526;50.948;6.590;2023-07-16T10:48:01;25.50;67.50
74171;DHT22;62526;50.948;6.590;2023-07-16T10:50:27;25.80;66.80
74171;DHT22;62526;50.948;6.590;2023-07-16T10:52:55;25.70;66.90
74171;DHT22;62526;50.948;6.590;2023-07-16T10:55:21;26.10;65.30
74171;DHT22;62526;50.948;6.590;2023-07-16T10:57:48;25.90;65.60
74171;DHT22;62526;50.948;6.590;2023-07-16T11:00:14;26.00;66.50
74171;DHT22;62526;50.948;6.590;2023-07-16T11:02:40;26.00;67.20
74171;DHT22;62526;50.948;6.590;2023-07-16T11:05:09;26.10;66.50
74171;DHT22;62526;50.948;6.590;2023-07-16T11:07:34;26.20;64.80
74171;DHT22;62526;50.948;6.590;2023-07-16T11:10:02;26.30;65.50
74171;DHT22;62526;50.948;6.590;2023-07-16T11:12:28;26.60;64.70
74171;DHT22;62526;50.948;6.590;2023-07-16T11:14:55;26.50;63.00
74171;DHT22;62526;50.948;6.590;2023-07-16T11:17:22;26.50;63.50
74171;DHT22;62526;50.948;6.590;2023-07-16T11:19:49;26.20;63.00
74171;DHT22;62526;50.948;6.590;2023-07-16T11:22:15;26.10;63.50
74171;DHT22;62526;50.948;6.590;2023-07-16T11:24:46;26.30;63.10
74171;DHT22;62526;50.948;6.590;2023-07-16T11:27:16;26.20;63.60
74171;DHT22;62526;50.948;6.590;2023-07-16T11:29:47;26.20;63.80
74171;DHT22;62526;50.948;6.590;2023-07-16T11:32:25;26.50;62.00
74171;DHT22;62526;50.948;6.590;2023-07-16T11:34:52;26.50;63.50
74171;DHT22;62526;50.948;6.590;2023-07-16T11:37:19;27.00;62.20
74171;DHT22;62526;50.948;6.590;2023-07-16T11:39:45;27.30;61.00
74171;DHT22;62526;50.948;6.590;2023-07-16T11:42:12;27.30;61.50
74171;DHT22;62526;50.948;6.590;2023-07-16T11:44:39;28.00;60.90
74171;DHT22;62526;50.948;6.590;2023-07-16T11:47:05;28.50;58.50
74171;DHT22;62526;50.948;6.590;2023-07-16T11:49:33;28.40;58.90
74171;DHT22;62526;50.948;6.590;2023-07-16T11:51:59;28.10;59.40
74171;DHT22;62526;50.948;6.590;2023-07-16T11:54:27;28.00;59.10
74171;DHT22;62526;50.948;6.590;2023-07-16T11:56:53;28.00;59.60
74171;DHT22;62526;50.948;6.590;2023-07-16T11:59:20;27.80;58.50
74171;DHT22;62526;50.948;6.590;2023-07-16T12:01:48;27.60;57.60
74171;DHT22;62526;50.948;6.590;2023-07-16T12:04:15;27.90;57.80
74171;DHT22;62526;50.948;6.590;2023-07-16T12:06:40;27.90;58.10
74171;DHT22;62526;50.948;6.590;2023-07-16T12:09:08;27.50;59.00
74171;DHT22;62526;50.948;6.590;2023-07-16T12:11:34;27.30;58.90
74171;DHT22;62526;50.948;6.590;2023-07-16T12:14:01;27.30;59.40
74171;DHT22;62526;50.948;6.590;2023-07-16T12:16:28;27.30;59.60
74171;DHT22;62526;50.948;6.590;2023-07-16T12:18:54;27.30;58.20
74171;DHT22;62526;50.948;6.590;2023-07-16T12:21:21;27.50;58.40
74171;DHT22;62526;50.948;6.590;2023-07-16T12:23:48;27.50;58.20
74171;DHT22;62526;50.948;6.590;2023-07-16T12:26:15;27.50;58.70
74171;DHT22;62526;50.948;6.590;2023-07-16T12:28:42;27.10;58.70
74171;DHT22;62526;50.948;6.590;2023-07-16T12:31:09;27.60;58.80
74171;DHT22;62526;50.948;6.590;2023-07-16T12:33:36;28.00;55.70
74171;DHT22;62526;50.948;6.590;2023-07-16T12:36:02;27.50;56.20
74171;DHT22;62526;50.948;6.590;2023-07-16T12:38:30;27.50;56.70
74171;DHT22;62526;50.948;6.590;2023-07-16T12:40:57;27.30;56.70
74171;DHT22;62526;50.948;6.590;2023-07-16T12:43:24;27.40;56.40
74171;DHT22;62526;50.948;6.590;2023-07-16T12:45:50;27.70;55.70
74171;DHT22;62526;50.948;6.590;2023-07-16T12:48:17;28.20;55.90
74171;DHT22;62526;50.948;6.590;2023-07-16T12:50:44;28.80;55.40
74171;DHT22;62526;50.948;6.590;2023-07-16T12:53:10;28.60;53.90
74171;DHT22;62526;50.948;6.590;2023-07-16T12:55:37;28.10;54.70
74171;DHT22;62526;50.948;6.590;2023-07-16T12:58:04;27.70;56.80
74171;DHT22;62526;50.948;6.590;2023-07-16T13:00:31;27.10;56.90
74171;DHT22;62526;50.948;6.590;2023-07-16T13:02:59;27.30;56.70
74171;DHT22;62526;50.948;6.590;2023-07-16T13:05:26;27.20;57.10
74171;DHT22;62526;50.948;6.590;2023-07-16T13:07:52;28.20;56.10
74171;DHT22;62526;50.948;6.590;2023-07-16T13:10:19;28.20;56.30
74171;DHT22;62526;50.948;6.590;2023-07-16T13:12:45;28.10;54.80
74171;DHT22;62526;50.948;6.590;2023-07-16T13:15:12;27.90;54.60
74171;DHT22;62526;50.948;6.590;2023-07-16T13:17:39;27.10;56.20
74171;DHT22;62526;50.948;6.590;2023-07-16T13:20:06;27.30;55.50
74171;DHT22;62526;50.948;6.590;2023-07-16T13:22:33;27.20;56.10
74171;DHT22;62526;50.948;6.590;2023-07-16T13:24:59;27.50;55.90
74171;DHT22;62526;50.948;6.590;2023-07-16T13:27:26;27.70;55.30
74171;DHT22;62526;50.948;6.590;2023-07-16T13:29:53;27.70;55.90
74171;DHT22;62526;50.948;6.590;2023-07-16T13:32:20;28.20;54.60
74171;DHT22;62526;50.948;6.590;2023-07-16T13:34:47;28.30;55.10
74171;DHT22;62526;50.948;6.590;2023-07-16T13:37:14;28.50;53.60
74171;DHT22;62526;50.948;6.590;2023-07-16T13:39:41;28.70;53.30
74171;DHT22;62526;50.948;6.590;2023-07-16T13:42:08;28.80;53.80
74171;DHT22;62526;50.948;6.590;2023-07-16T13:44:35;29.20;53.40
74171;DHT22;62526;50.948;6.590;2023-07-16T13:47:03;29.00;53.10
74171;DHT22;62526;50.948;6.590;2023-07-16T13:49:30;28.30;53.20
74171;DHT22;62526;50.948;6.590;2023-07-16T13:51:56;28.20;53.70
74171;DHT22;62526;50.948;6.590;2023-07-16T13:54:24;28.30;54.10
74171;DHT22;62526;50.948;6.590;2023-07-16T13:56:50;28.80;53.00
74171;DHT22;62526;50.948;6.590;2023-07-16T13:59:18;28.80;53.50
74171;DHT22;62526;50.948;6.590;2023-07-16T14:01:44;28.10;54.30
74171;DHT22;62526;50.948;6.590;2023-07-16T14:04:12;28.20;54.90
74171;DHT22;62526;50.948;6.590;2023-07-16T14:06:38;27.70;54.50
74171;DHT22;62526;50.948;6.590;2023-07-16T14:09:06;27.80;54.50
74171;DHT22;62526;50.948;6.590;2023-07-16T14:11:33;27.80;55.10
74171;DHT22;62526;50.948;6.590;2023-07-16T14:13:59;28.60;53.50
74171;DHT22;62526;50.948;6.590;2023-07-16T14:16:27;29.50;52.50
74171;DHT22;62526;50.948;6.590;2023-07-16T14:18:55;29.40;52.00
74171;DHT22;62526;50.948;6.590;2023-07-16T14:21:21;29.40;51.30
74171;DHT22;62526;50.948;6.590;2023-07-16T14:23:48;29.40;52.20
74171;DHT22;62526;50.948;6.590;2023-07-16T14:26:15;29.20;51.60
74171;DHT22;62526;50.948;6.590;2023-07-16T14:28:42;28.00;52.50
74171;DHT22;62526;50.948;6.590;2023-07-16T14:31:08;27.70;53.70
74171;DHT22;62526;50.948;6.590;2023-07-16T14:33:35;27.70;53.80
74171;DHT22;62526;50.948;6.590;2023-07-16T14:36:03;27.70;54.60
74171;DHT22;62526;50.948;6.590;2023-07-16T14:38:30;27.90;54.40
74171;DHT22;62526;50.948;6.590;2023-07-16T14:40:57;27.80;54.80
74171;DHT22;62526;50.948;6.590;2023-07-16T14:43:23;27.90;54.40
74171;DHT22;62526;50.948;6.590;2023-07-16T14:45:50;27.90;54.50
74171;DHT22;62526;50.948;6.590;2023-07-16T14:48:17;28.30;53.70
74171;DHT22;62526;50.948;6.590;2023-07-16T14:50:48;28.30;54.40
74171;DHT22;62526;50.948;6.590;2023-07-16T14:53:12;28.60;54.40
74171;DHT22;62526;50.948;6.590;2023-07-16T14:55:39;28.50;53.90
74171;DHT22;62526;50.948;6.590;2023-07-16T14:58:06;28.50;54.40
74171;DHT22;62526;50.948;6.590;2023-07-16T15:00:33;28.50;54.40
74171;DHT22;62526;50.948;6.590;2023-07-16T15:03:00;28.60;53.60
74171;DHT22;62526;50.948;6.590;2023-07-16T15:05:26;29.10;53.20
74171;DHT22;62526;50.948;6.590;2023-07-16T15:07:53;29.20;53.70
74171;DHT22;62526;50.948;6.590;2023-07-16T15:10:19;28.40;53.30
74171;DHT22;62526;50.948;6.590;2023-07-16T15:12:46;28.40;54.10
74171;DHT22;62526;50.948;6.590;2023-07-16T15:15:14;27.90;54.40
74171;DHT22;62526;50.948;6.590;2023-07-16T15:17:40;27.60;55.10
74171;DHT22;62526;50.948;6.590;2023-07-16T15:20:07;27.30;55.90
74171;DHT22;62526;50.948;6.590;2023-07-16T15:22:34;27.60;55.10
74171;DHT22;62526;50.948;6.590;2023-07-16T15:25:01;27.70;55.40
74171;DHT22;62526;50.948;6.590;2023-07-16T15:27:27;28.50;52.60
74171;DHT22;62526;50.948;6.590;2023-07-16T15:29:54;28.50;52.60
74171;DHT22;62526;50.948;6.590;2023-07-16T15:32:22;28.50;52.60